Lojt Kirkeby, Denmark
Current Conditions -  °F | °C
As of 1:50 PM on Saturday 25 Oct 2014 (Local Time) from EKSP Reporting Station
Broken Clouds Broken Clouds  
Wind Chill: 57°   Ceiling: 5000
Heat Index: 57°   Visibility: 6mi
Dew Point: 54°   Wind: 7mph
Humidity: 88%   Direction: 260°W
Pressure: 29.97"   Gusts: NA
Location:  55.08°N, 9.47°E
Report Text: EKSP 251150Z 26006KT 9999 FEW010 SCT024 BKN050 14/12 Q1015
Loading
Personal Weather Stations






























Interactive Weather Map
Tropical Storm Tracking
New forecast layout! Learn more

10-Day Weather Forecast

Advertisements
Track Severe Weather on mobile